Aviation Digital Data Service (ADDS)

Output produced by METARs form (0603 UTC 18 January 2018)
found at http://www.aviationweather.gov/adds/metars/
 
OJAQ 180600Z 00000KT CAVOK 11/06 Q1016 NOSIG
TAF OJAQ 180500Z 1806/1912 VRB02KT 8000 SCT030 
     BECMG 1809/1811 18012KT 5000 HZ SCT035 
     BECMG 1818/1820 33018KT 3000 BLDU SCT035 SCT040 
     TEMPO 1822/1824 -SHRA BKN035
       
OJAM 180600Z 19007KT 5000 BR SCT030 09/07 Q1015 NOSIG
TAF OJAM 180500Z 1806/1912 23012KT 5000 BR SCT025 SCT030 
     TEMPO 1812/1816 25016G26KT 3000 BLDU 
     BECMG 1816/1818 27020G30KT 3000 RA SCT025 BKN030 
     TEMPO 1819/1824 TSRA SCT020CB BKN025
       
OJAI 180600Z 18004KT 5000 BR SCT035 08/06 Q1016 NOSIG
TAF OJAI 180500Z 1806/1912 24008KT 4000 BR SCT030 BKN050 
     TEMPO 1812/1816 25016G26KT 3000 BLDU 
     BECMG 1816/1818 27020G30KT 3000 RA SCT025 BKN030 
     TEMPO 1820/1824 2000 TSRA SCT020CB BKN025
       
OJAM 180600Z 19007KT 5000 BR SCT030 09/07 Q1015 NOSIG
TAF OJAM 180500Z 1806/1912 23012KT 5000 BR SCT025 SCT030 
     TEMPO 1812/1816 25016G26KT 3000 BLDU 
     BECMG 1816/1818 27020G30KT 3000 RA SCT025 BKN030 
     TEMPO 1819/1824 TSRA SCT020CB BKN025
       
OJAQ 180600Z 00000KT CAVOK 11/06 Q1016 NOSIG
TAF OJAQ 180500Z 1806/1912 VRB02KT 8000 SCT030 
     BECMG 1809/1811 18012KT 5000 HZ SCT035 
     BECMG 1818/1820 33018KT 3000 BLDU SCT035 SCT040 
     TEMPO 1822/1824 -SHRA BKN035
       
OJAI 180600Z 18004KT 5000 BR SCT035 08/06 Q1016 NOSIG
TAF OJAI 180500Z 1806/1912 24008KT 4000 BR SCT030 BKN050 
     TEMPO 1812/1816 25016G26KT 3000 BLDU 
     BECMG 1816/1818 27020G30KT 3000 RA SCT025 BKN030 
     TEMPO 1820/1824 2000 TSRA SCT020CB BKN025